Time;durP1;ratioP1;P1;durP2;ratioP2;P2;SDS_P1;SDS_P2;PMS_P1;PMS_P2;Temp;Humidity;BMP_temperature;BMP_pressure;BME280_temperature;BME280_humidity;BME280_pressure;Samples;Min_cycle;Max_cycle;Signal;HPM_P1;HPM_P2
2020/12/30 00:00:48;;;;;;;38.50;5.20;;;;;;;10.07;100.00;101330.13;5031355;28;20601;-75
2020/12/30 00:03:14;;;;;;;36.47;5.77;;;;;;;10.00;100.00;101320.91;5030882;28;20174;-74
2020/12/30 00:05:39;;;;;;;43.10;6.03;;;;;;;9.97;100.00;101329.81;5031334;28;20411;-76
2020/12/30 00:08:05;;;;;;;35.50;5.90;;;;;;;9.96;100.00;101328.09;5031225;28;20253;-76
2020/12/30 00:10:31;;;;;;;35.53;5.43;;;;;;;9.93;100.00;101324.78;5031126;28;20586;-76
2020/12/30 00:12:57;;;;;;;45.60;5.50;;;;;;;9.87;100.00;101327.75;5031648;28;20903;-76
2020/12/30 00:15:22;;;;;;;34.87;5.40;;;;;;;9.85;100.00;101332.25;5031150;28;20565;-76
2020/12/30 00:17:48;;;;;;;34.97;4.90;;;;;;;9.92;100.00;101323.09;5031022;28;20181;-74
2020/12/30 00:20:16;;;;;;;38.90;5.97;;;;;;;10.02;100.00;101321.66;5030877;28;20166;-77
2020/12/30 00:22:43;;;;;;;38.70;5.40;;;;;;;10.11;100.00;101318.50;5031068;28;20664;-77
2020/12/30 00:25:09;;;;;;;35.20;5.27;;;;;;;10.09;100.00;101320.38;5030876;28;20428;-72
2020/12/30 00:27:37;;;;;;;33.13;4.50;;;;;;;10.07;100.00;101316.16;5032923;28;20467;-76
2020/12/30 00:30:07;;;;;;;36.50;6.20;;;;;;;10.11;100.00;101315.03;5034777;28;20169;-75
2020/12/30 00:32:32;;;;;;;37.03;4.80;;;;;;;10.01;100.00;101320.81;5034777;28;20422;-74
2020/12/30 00:34:58;;;;;;;34.07;5.50;;;;;;;9.96;100.00;101319.38;5034873;28;20408;-75
2020/12/30 00:37:23;;;;;;;28.80;4.27;;;;;;;9.93;100.00;101328.25;5034553;28;20660;-76
2020/12/30 00:39:49;;;;;;;31.60;4.83;;;;;;;9.83;100.00;101347.22;5034801;28;20202;-74
2020/12/30 00:42:14;;;;;;;34.60;5.50;;;;;;;9.81;100.00;101343.81;5034033;28;20197;-74
2020/12/30 00:44:40;;;;;;;33.07;4.80;;;;;;;9.77;100.00;101339.69;5033418;28;20223;-75
2020/12/30 00:47:05;;;;;;;39.83;5.90;;;;;;;9.73;100.00;101344.22;5034457;28;20225;-75
2020/12/30 00:49:31;;;;;;;43.47;6.70;;;;;;;9.73;100.00;101338.97;5034104;28;20651;-74
2020/12/30 00:51:57;;;;;;;40.27;6.07;;;;;;;9.74;100.00;101333.63;5034550;28;20170;-75
2020/12/30 00:54:24;;;;;;;35.57;6.00;;;;;;;9.70;100.00;101334.75;5034377;28;20169;-77
2020/12/30 00:56:51;;;;;;;38.00;6.00;;;;;;;9.74;100.00;101335.41;5034264;28;20408;-76
2020/12/30 00:59:17;;;;;;;36.37;6.27;;;;;;;9.65;100.00;101336.75;5034530;28;20820;-76
2020/12/30 01:01:43;;;;;;;38.40;7.23;;;;;;;9.64;100.00;101329.81;5033813;28;20482;-75
2020/12/30 01:04:09;;;;;;;41.17;6.80;;;;;;;9.70;100.00;101324.25;5034171;28;20404;-76
2020/12/30 01:06:35;;;;;;;29.97;5.13;;;;;;;9.73;100.00;101329.31;5034178;28;20472;-74
2020/12/30 01:09:03;;;;;;;29.77;4.80;;;;;;;9.83;100.00;101323.63;5033925;28;20404;-76
2020/12/30 01:11:29;;;;;;;36.30;5.80;;;;;;;9.98;100.00;101326.25;5034097;28;20466;-76
2020/12/30 01:13:56;;;;;;;30.63;5.80;;;;;;;10.15;100.00;101330.56;5034024;28;20404;-75
2020/12/30 01:16:21;;;;;;;34.40;5.47;;;;;;;10.09;100.00;101340.53;5033836;28;20444;-74
2020/12/30 01:18:48;;;;;;;34.03;5.83;;;;;;;10.00;100.00;101326.16;5033830;28;20412;-74
2020/12/30 01:21:14;;;;;;;36.90;6.50;;;;;;;9.97;100.00;101336.81;5033714;28;20215;-77
2020/12/30 01:23:40;;;;;;;37.03;6.10;;;;;;;9.92;100.00;101334.44;5033645;28;20955;-76
2020/12/30 01:26:06;;;;;;;30.70;5.10;;;;;;;9.97;100.00;101340.31;5034066;28;20420;-77
2020/12/30 01:28:31;;;;;;;33.47;4.43;;;;;;;9.93;100.00;101337.91;5033956;28;20165;-77
2020/12/30 01:30:56;;;;;;;36.63;5.47;;;;;;;9.91;100.00;101348.50;5033930;28;20776;-74
2020/12/30 01:33:22;;;;;;;37.50;7.43;;;;;;;9.88;100.00;101329.44;5033982;28;20208;-74
2020/12/30 01:35:48;;;;;;;34.93;5.67;;;;;;;9.81;100.00;101346.44;5033394;28;20567;-76
2020/12/30 01:38:13;;;;;;;36.53;5.10;;;;;;;9.83;100.00;101337.56;5032578;28;20196;-76
2020/12/30 01:40:39;;;;;;;36.40;5.10;;;;;;;9.81;100.00;101343.81;5033111;28;20169;-75
2020/12/30 01:43:05;;;;;;;32.87;4.57;;;;;;;9.78;100.00;101330.88;5033736;28;20605;-76
2020/12/30 01:45:31;;;;;;;34.53;5.10;;;;;;;9.72;100.00;101343.38;5033487;28;20432;-75
2020/12/30 01:47:57;;;;;;;45.30;6.20;;;;;;;9.72;100.00;101334.66;5033190;28;20798;-76
2020/12/30 01:50:22;;;;;;;33.57;5.30;;;;;;;9.70;100.00;101328.66;5033375;28;20170;-75
2020/12/30 01:52:48;;;;;;;36.40;5.40;;;;;;;9.88;100.00;101332.06;5033089;28;20235;-75
2020/12/30 01:55:19;;;;;;;35.33;5.43;;;;;;;9.87;100.00;101330.38;5033377;28;20177;-75
2020/12/30 01:57:44;;;;;;;40.53;6.33;;;;;;;9.81;100.00;101330.69;5033478;28;20276;-75
2020/12/30 02:00:10;;;;;;;45.67;7.60;;;;;;;9.73;100.00;101336.34;5033094;28;20896;-76
2020/12/30 02:02:38;;;;;;;37.80;5.50;;;;;;;9.79;100.00;101343.06;5033058;28;20252;-76
2020/12/30 02:05:07;;;;;;;33.40;5.30;;;;;;;9.77;100.00;101331.81;5033036;28;20184;-76
2020/12/30 02:07:33;;;;;;;46.10;6.90;;;;;;;9.83;100.00;101331.47;5032736;28;20411;-76
2020/12/30 02:10:02;;;;;;;40.60;5.40;;;;;;;9.77;100.00;101337.06;5032834;28;20409;-76
2020/12/30 02:12:28;;;;;;;40.63;6.17;;;;;;;9.80;100.00;101329.00;5032814;28;20411;-77
2020/12/30 02:14:54;;;;;;;40.97;5.70;;;;;;;9.78;100.00;101330.88;5032487;28;20401;-75
2020/12/30 02:17:20;;;;;;;41.00;6.33;;;;;;;9.93;100.00;101319.53;5032757;28;20416;-78
2020/12/30 02:19:46;;;;;;;35.73;5.80;;;;;;;9.90;100.00;101310.06;5033106;28;20407;-75
2020/12/30 02:22:13;;;;;;;35.30;5.90;;;;;;;9.81;100.00;101326.28;5032960;28;20641;-76
2020/12/30 02:24:39;;;;;;;34.80;7.77;;;;;;;9.90;100.00;101312.69;5032821;28;20545;-75
2020/12/30 02:27:05;;;;;;;35.37;5.40;;;;;;;10.31;100.00;101308.72;5032469;28;20405;-75
2020/12/30 02:29:32;;;;;;;40.53;6.30;;;;;;;10.30;100.00;101301.78;5032767;28;20178;-76
2020/12/30 02:31:59;;;;;;;39.60;6.03;;;;;;;10.19;100.00;101311.06;5032813;28;20494;-75
2020/12/30 02:34:24;;;;;;;35.37;5.97;;;;;;;10.13;100.00;101310.56;5032795;28;20906;-74
2020/12/30 02:36:50;;;;;;;34.93;5.63;;;;;;;10.22;100.00;101303.06;5032274;28;20462;-75
2020/12/30 02:39:17;;;;;;;40.70;6.27;;;;;;;10.32;100.00;101303.38;5032252;28;20167;-75
2020/12/30 02:41:42;;;;;;;30.87;5.60;;;;;;;10.33;100.00;101310.31;5032280;28;20482;-76
2020/12/30 02:44:08;;;;;;;46.47;7.33;;;;;;;10.27;100.00;101297.53;5032266;28;20412;-76
2020/12/30 02:46:34;;;;;;;37.10;5.70;;;;;;;10.22;100.00;101304.81;5032090;28;20645;-76
2020/12/30 02:48:59;;;;;;;33.13;5.97;;;;;;;10.35;100.00;101299.72;5032305;28;20279;-77
2020/12/30 02:51:25;;;;;;;32.73;6.60;;;;;;;10.31;100.00;101295.59;5031978;28;20169;-76
2020/12/30 02:53:51;;;;;;;33.40;5.80;;;;;;;10.36;100.00;101283.91;5031955;28;20170;-78
2020/12/30 02:56:18;;;;;;;34.63;6.10;;;;;;;10.34;100.00;101287.53;5031929;28;20408;-76
2020/12/30 02:58:45;;;;;;;38.13;6.40;;;;;;;10.44;100.00;101279.03;5032062;28;20174;-76
2020/12/30 03:01:11;;;;;;;30.50;5.00;;;;;;;10.46;100.00;101284.22;5031666;28;20989;-74
2020/12/30 03:03:38;;;;;;;35.03;5.90;;;;;;;10.43;100.00;101289.66;5032073;28;20431;-77
2020/12/30 03:06:03;;;;;;;37.10;6.77;;;;;;;10.38;100.00;101282.03;5031872;28;20980;-75
2020/12/30 03:08:29;;;;;;;36.97;6.00;;;;;;;10.35;100.00;101281.34;5031689;28;20405;-76
2020/12/30 03:10:55;;;;;;;33.60;5.57;;;;;;;10.33;100.00;101281.44;5031876;28;20240;-77
2020/12/30 03:13:20;;;;;;;35.63;6.00;;;;;;;10.28;100.00;101280.88;5013951;28;20182;-74
2020/12/30 03:15:46;;;;;;;35.97;7.23;;;;;;;10.19;100.00;101266.41;5031583;28;20174;-75
2020/12/30 03:18:11;;;;;;;33.30;6.33;;;;;;;10.03;100.00;101265.59;5031763;28;20220;-76
2020/12/30 03:20:37;;;;;;;40.17;6.03;;;;;;;10.02;100.00;101272.63;5031417;28;20173;-76
2020/12/30 03:23:02;;;;;;;39.40;5.60;;;;;;;9.94;100.00;101274.00;5031563;28;20220;-77
2020/12/30 03:25:28;;;;;;;39.80;6.10;;;;;;;9.95;100.00;101275.66;5031563;28;20162;-74
2020/12/30 03:27:53;;;;;;;39.63;5.37;;;;;;;9.96;100.00;101277.38;5031513;28;20205;-77
2020/12/30 03:30:19;;;;;;;37.20;5.67;;;;;;;9.89;100.00;101282.09;5031491;28;20201;-76
2020/12/30 03:32:45;;;;;;;34.13;5.90;;;;;;;9.83;100.00;101279.00;5031566;28;20169;-76
2020/12/30 03:35:10;;;;;;;34.50;6.60;;;;;;;9.84;100.00;101272.81;5031236;28;20173;-75
2020/12/30 03:37:36;;;;;;;40.40;6.00;;;;;;;9.77;100.00;101280.16;5031224;28;20176;-75
2020/12/30 03:40:01;;;;;;;39.97;6.50;;;;;;;9.84;100.00;101267.56;5031286;28;20248;-75
2020/12/30 03:42:27;;;;;;;33.33;5.70;;;;;;;9.89;100.00;101270.75;5031652;28;20189;-77
2020/12/30 03:44:52;;;;;;;33.13;5.60;;;;;;;9.83;100.00;101274.59;5031392;28;20188;-77
2020/12/30 03:47:18;;;;;;;37.43;5.03;;;;;;;9.85;100.00;101277.97;5031158;28;20224;-77
2020/12/30 03:49:43;;;;;;;34.97;5.47;;;;;;;9.93;100.00;101275.75;5031148;28;20191;-75
2020/12/30 03:52:09;;;;;;;34.07;6.10;;;;;;;9.83;100.00;101279.00;5031699;28;20174;-75
2020/12/30 03:54:34;;;;;;;37.33;6.27;;;;;;;9.79;100.00;101283.56;5013529;28;20435;-76
2020/12/30 03:57:00;;;;;;;37.37;6.00;;;;;;;9.87;100.00;101280.50;5031003;28;20181;-75
2020/12/30 03:59:25;;;;;;;32.53;5.43;;;;;;;9.87;100.00;101277.88;5031330;28;20212;-77
2020/12/30 04:01:51;;;;;;;35.20;6.27;;;;;;;9.90;100.00;101273.31;5031982;28;20205;-74
2020/12/30 04:04:16;;;;;;;34.53;6.43;;;;;;;9.87;100.00;101275.25;5035044;28;20706;-74
2020/12/30 04:06:43;;;;;;;35.20;6.53;;;;;;;9.89;100.00;101260.25;5035166;28;20201;-76
2020/12/30 04:09:09;;;;;;;38.20;6.57;;;;;;;9.86;100.00;101268.31;5035276;28;20165;-77
2020/12/30 04:11:34;;;;;;;33.73;6.40;;;;;;;9.90;100.00;101262.81;5035071;28;20466;-76
2020/12/30 04:14:00;;;;;;;37.07;8.17;;;;;;;9.90;100.00;101267.19;5035238;28;20400;-76
2020/12/30 04:16:25;;;;;;;35.70;8.50;;;;;;;9.93;100.00;101264.41;5035139;28;20247;-77
2020/12/30 04:18:52;;;;;;;32.47;6.57;;;;;;;9.86;100.00;101265.69;5035118;28;20201;-76
2020/12/30 04:21:25;;;;;;;35.37;7.93;;;;;;;9.85;100.00;101270.09;5034803;28;20197;-76
2020/12/30 04:23:54;;;;;;;34.67;7.97;;;;;;;9.84;100.00;101262.31;5035145;28;20527;-77
2020/12/30 04:26:20;;;;;;;39.30;6.90;;;;;;;9.88;100.00;101264.66;5034867;28;20444;-75
2020/12/30 04:28:46;;;;;;;45.33;7.40;;;;;;;9.90;100.00;101264.56;5034921;28;20408;-76
2020/12/30 04:31:13;;;;;;;38.07;7.27;;;;;;;9.82;100.00;101266.78;5035339;28;20412;-77
2020/12/30 04:33:38;;;;;;;41.67;7.17;;;;;;;9.79;100.00;101261.72;5034666;28;20401;-77
2020/12/30 04:36:05;;;;;;;36.77;6.80;;;;;;;9.81;100.00;101262.47;5034727;28;20431;-75
2020/12/30 04:38:32;;;;;;;33.27;7.30;;;;;;;9.81;100.00;101263.31;5034723;28;20400;-75
2020/12/30 04:41:07;;;;;;;41.37;7.57;;;;;;;9.79;100.00;101259.94;5034503;28;20454;-76
2020/12/30 04:43:37;;;;;;;31.60;7.00;;;;;;;9.80;100.00;101259.00;5034551;28;20404;-76
2020/12/30 04:46:04;;;;;;;33.40;7.23;;;;;;;9.82;100.00;101261.53;5034463;28;20514;-74
2020/12/30 04:48:32;;;;;;;43.50;6.43;;;;;;;9.82;100.00;101270.25;5034451;28;20934;-76
2020/12/30 04:50:58;;;;;;;35.10;6.43;;;;;;;9.87;100.00;101278.72;5034286;28;20409;-76
2020/12/30 04:53:24;;;;;;;36.47;6.67;;;;;;;9.89;100.00;101271.59;5034399;28;20416;-77
2020/12/30 04:55:57;;;;;;;31.73;6.50;;;;;;;9.97;100.00;101277.31;5034154;28;20950;-76
2020/12/30 04:58:26;;;;;;;44.60;7.73;;;;;;;10.01;100.00;101284.06;5034188;28;20400;-75
2020/12/30 05:00:53;;;;;;;34.10;6.37;;;;;;;9.94;100.00;101285.31;5034233;28;20408;-74
2020/12/30 05:03:31;;;;;;;37.27;7.40;;;;;;;9.95;100.00;101284.41;5033863;28;20438;-74
2020/12/30 05:06:03;;;;;;;40.73;6.10;;;;;;;10.04;100.00;101276.94;5034232;28;20408;-76
2020/12/30 05:08:32;;;;;;;36.30;6.83;;;;;;;10.04;100.00;101279.56;5033917;28;20554;-75
2020/12/30 05:10:59;;;;;;;35.23;6.13;;;;;;;10.13;100.00;101265.94;5034211;28;20413;-75
2020/12/30 05:13:25;;;;;;;38.37;6.90;;;;;;;10.06;100.00;101289.06;5033489;28;20507;-74
2020/12/30 05:15:51;;;;;;;34.00;6.40;;;;;;;10.07;100.00;101275.00;5033910;28;20844;-75
2020/12/30 05:18:19;;;;;;;36.37;6.93;;;;;;;10.03;100.00;101273.47;5033870;28;20907;-77
2020/12/30 05:20:45;;;;;;;38.00;6.90;;;;;;;9.96;100.00;101269.50;5033778;28;20212;-76
2020/12/30 05:23:11;;;;;;;36.80;6.80;;;;;;;9.90;100.00;101273.31;5033469;28;20507;-75
2020/12/30 05:25:38;;;;;;;38.83;8.07;;;;;;;9.99;100.00;101270.19;5033833;28;20412;-75
2020/12/30 05:28:05;;;;;;;37.77;6.93;;;;;;;9.97;100.00;101277.31;5033630;28;20416;-75
2020/12/30 05:30:32;;;;;;;36.43;8.43;;;;;;;9.96;100.00;101274.75;5033619;28;20805;-75
2020/12/30 05:32:58;;;;;;;38.07;7.57;;;;;;;9.93;100.00;101273.13;5033907;28;20420;-76
2020/12/30 05:35:28;;;;;;;36.10;6.70;;;;;;;9.95;100.00;101266.03;5033523;28;20558;-76
2020/12/30 05:37:55;;;;;;;36.43;7.47;;;;;;;9.92;100.00;101266.19;5033225;28;20968;-76
2020/12/30 05:40:22;;;;;;;42.13;9.10;;;;;;;9.93;100.00;101267.03;5033412;28;20417;-76
2020/12/30 05:42:48;;;;;;;39.63;8.93;;;;;;;9.93;100.00;101252.16;5033097;28;20554;-77
2020/12/30 05:45:23;;;;;;;38.83;9.03;;;;;;;9.91;100.00;101256.63;5033180;28;20489;-76
2020/12/30 05:47:52;;;;;;;37.20;8.70;;;;;;;9.91;100.00;101258.41;5033548;28;20995;-77
2020/12/30 05:50:25;;;;;;;49.80;8.10;;;;;;;9.88;100.00;101259.41;5033470;28;20475;-75
2020/12/30 05:52:52;;;;;;;43.10;7.90;;;;;;;9.87;100.00;101249.84;5032886;28;20416;-75
2020/12/30 05:55:25;;;;;;;41.07;8.27;;;;;;;10.05;100.00;101250.63;5033063;28;20412;-77
2020/12/30 05:57:51;;;;;;;43.00;8.63;;;;;;;10.02;100.00;101249.00;5032889;28;20435;-77
2020/12/30 06:00:16;;;;;;;38.00;9.00;;;;;;;10.09;100.00;101257.38;5033367;28;20620;-76
2020/12/30 06:02:47;;;;;;;38.10;8.73;;;;;;;10.12;100.00;101259.81;5032996;28;20205;-76
2020/12/30 06:05:19;;;;;;;35.80;8.07;;;;;;;10.14;100.00;101273.72;5032867;28;20173;-76
2020/12/30 06:07:49;;;;;;;37.07;8.73;;;;;;;10.17;100.00;101260.41;5032788;28;20985;-75
2020/12/30 06:10:20;;;;;;;40.37;9.57;;;;;;;10.24;100.00;101269.66;5033273;28;20446;-77
2020/12/30 06:12:51;;;;;;;34.57;7.87;;;;;;;10.27;100.00;101269.47;5032554;28;20528;-77
2020/12/30 06:15:28;;;;;;;37.40;7.43;;;;;;;10.31;100.00;101270.16;5031492;28;20511;-77
2020/12/30 06:18:04;;;;;;;34.37;8.07;;;;;;;10.48;100.00;101270.03;5032914;28;20802;-76
2020/12/30 06:20:38;;;;;;;39.27;6.83;;;;;;;10.78;100.00;101266.56;5032893;28;20420;-76
2020/12/30 06:23:11;;;;;;;30.87;5.90;;;;;;;10.92;100.00;101269.22;5032663;28;20444;-76
2020/12/30 06:25:45;;;;;;;33.90;6.13;;;;;;;11.06;100.00;101277.13;5031794;28;20467;-75
2020/12/30 06:28:11;;;;;;;42.83;9.40;;;;;;;11.22;100.00;101271.78;5032563;28;20447;-76
2020/12/30 06:30:38;;;;;;;40.10;6.03;;;;;;;11.28;100.00;101281.94;5032184;28;20397;-77
2020/12/30 06:33:05;;;;;;;39.67;6.97;;;;;;;11.38;100.00;101274.31;5032740;28;20427;-76
2020/12/30 06:35:32;;;;;;;43.50;8.53;;;;;;;11.43;100.00;101276.69;5032127;28;20405;-74
2020/12/30 06:38:15;;;;;;;38.30;9.43;;;;;;;11.43;100.00;101284.56;5032099;28;20423;-76
2020/12/30 06:40:58;;;;;;;37.43;8.40;;;;;;;11.46;100.00;101285.22;5031994;28;20923;-77
2020/12/30 06:43:36;;;;;;;49.27;8.80;;;;;;;11.48;100.00;101298.28;5032135;28;20444;-75
2020/12/30 06:46:01;;;;;;;39.80;7.30;;;;;;;11.49;100.00;101314.00;5032018;28;20463;-75
2020/12/30 06:48:27;;;;;;;41.80;9.00;;;;;;;11.51;100.00;101313.88;5031544;28;20439;-76
2020/12/30 06:50:52;;;;;;;40.80;9.00;;;;;;;11.53;100.00;101312.84;5031994;28;20184;-75
2020/12/30 06:53:25;;;;;;;44.83;8.27;;;;;;;11.56;100.00;101314.44;5031898;28;20604;-75
2020/12/30 06:55:51;;;;;;;39.93;7.40;;;;;;;11.58;100.00;101305.53;5030731;28;20663;-76
2020/12/30 06:58:47;;;;;;;42.73;7.20;;;;;;;11.64;100.00;101315.69;5031406;28;20463;-76
2020/12/30 07:01:17;;;;;;;43.57;9.60;;;;;;;11.66;100.00;101310.31;5030439;28;20444;-76
2020/12/30 07:03:44;;;;;;;38.43;6.63;;;;;;;11.62;100.00;101309.63;5031722;28;20922;-76
2020/12/30 07:06:27;;;;;;;41.23;7.60;;;;;;;11.70;100.00;101310.94;5031511;28;20458;-76
2020/12/30 07:08:54;;;;;;;38.90;10.07;;;;;;;11.72;100.00;101306.47;5031298;28;20409;-77
2020/12/30 07:11:51;;;;;;;41.53;6.83;;;;;;;11.82;100.00;101308.44;5031445;28;20412;-75
2020/12/30 07:14:25;;;;;;;40.67;7.57;;;;;;;11.88;100.00;101317.75;5031698;28;20408;-78
2020/12/30 07:17:01;;;;;;;50.07;6.77;;;;;;;11.99;100.00;101309.16;5031295;28;20495;-76
2020/12/30 07:19:32;;;;;;;44.77;7.03;;;;;;;12.10;100.00;101311.97;5031437;28;20404;-77
2020/12/30 07:22:08;;;;;;;39.80;6.47;;;;;;;12.17;100.00;101306.22;5031345;28;20973;-76
2020/12/30 07:24:36;;;;;;;52.33;7.90;;;;;;;12.13;100.00;101298.59;5031569;28;20432;-77
2020/12/30 07:27:06;;;;;;;45.20;7.10;;;;;;;12.04;100.00;101293.91;5031299;28;20404;-76
2020/12/30 07:29:32;;;;;;;42.17;7.80;;;;;;;12.12;100.00;101297.75;5031283;28;20820;-78
2020/12/30 07:32:00;;;;;;;43.53;7.00;;;;;;;12.25;100.00;101296.97;5031118;28;21008;-78
2020/12/30 07:34:31;;;;;;;45.83;6.97;;;;;;;12.41;100.00;101300.28;5031515;28;20231;-79
2020/12/30 07:36:57;;;;;;;46.73;8.20;;;;;;;12.45;100.00;101299.97;5030878;28;20411;-76
2020/12/30 07:39:38;;;;;;;53.63;11.80;;;;;;;12.59;100.00;101300.84;5031440;28;20404;-74
2020/12/30 07:42:05;;;;;;;47.90;9.77;;;;;;;12.71;100.00;101305.31;5030968;28;20198;-77
2020/12/30 07:44:31;;;;;;;46.67;9.23;;;;;;;12.84;100.00;101306.19;5031000;28;20926;-77
2020/12/30 07:47:05;;;;;;;46.73;8.10;;;;;;;12.84;100.00;101306.19;5030825;28;20499;-75
2020/12/30 07:49:32;;;;;;;46.87;9.43;;;;;;;12.84;100.00;101305.34;5030600;28;20160;-76
2020/12/30 07:52:03;;;;;;;53.20;8.83;;;;;;;12.82;100.00;101304.59;5031183;28;20401;-78
2020/12/30 07:54:29;;;;;;;45.77;9.30;;;;;;;12.74;100.00;101299.84;5031165;28;20400;-78
2020/12/30 07:57:08;;;;;;;48.57;8.67;;;;;;;12.80;100.00;101307.34;5031060;28;20802;-77
2020/12/30 07:59:35;;;;;;;48.00;9.17;;;;;;;12.80;100.00;101314.41;5031019;28;20412;-77
2020/12/30 08:02:01;;;;;;;46.07;6.50;;;;;;;12.83;100.00;101311.56;5031205;28;20452;-77
2020/12/30 08:04:29;;;;;;;54.10;10.63;;;;;;;12.95;100.00;101316.03;5031245;28;20408;-75
2020/12/30 08:06:55;;;;;;;45.13;7.47;;;;;;;13.09;100.00;101318.56;5031254;28;20414;-76
2020/12/30 08:09:28;;;;;;;48.83;7.60;;;;;;;13.29;100.00;101311.94;5030809;28;20943;-74
2020/12/30 08:12:03;;;;;;;57.27;6.90;;;;;;;13.66;100.00;101312.88;5030528;28;20476;-77
2020/12/30 08:14:30;;;;;;;54.53;9.73;;;;;;;13.92;100.00;101310.19;5030744;28;20396;-75
2020/12/30 08:16:58;;;;;;;47.17;13.77;;;;;;;13.98;100.00;101305.31;5030485;28;20392;-77
2020/12/30 08:19:38;;;;;;;49.93;16.93;;;;;;;13.95;100.00;101302.88;5031246;28;20813;-77
2020/12/30 08:22:08;;;;;;;49.90;14.10;;;;;;;13.93;100.00;101311.88;5030584;28;20447;-76
2020/12/30 08:24:35;;;;;;;56.67;15.60;;;;;;;13.98;100.00;101315.00;5031037;28;20421;-75
2020/12/30 08:27:02;;;;;;;55.67;17.40;;;;;;;13.97;100.00;101308.03;5030703;28;20816;-75
2020/12/30 08:29:33;;;;;;;55.90;17.17;;;;;;;14.03;100.00;101310.25;5029613;28;20899;-75
2020/12/30 08:32:04;;;;;;;57.70;17.50;;;;;;;14.17;100.00;101299.53;5030749;28;20396;-76
2020/12/30 08:34:34;;;;;;;53.77;16.10;;;;;;;14.11;100.00;101294.69;5030757;28;20408;-74
2020/12/30 08:37:06;;;;;;;53.70;15.67;;;;;;;14.47;100.00;101283.25;5030641;28;20466;-76
2020/12/30 08:39:39;;;;;;;51.27;12.20;;;;;;;14.52;100.00;101285.56;5031101;28;20416;-74
2020/12/30 08:42:13;;;;;;;50.03;9.37;;;;;;;14.55;100.00;101280.88;5030217;28;20535;-76
2020/12/30 08:44:45;;;;;;;48.50;10.03;;;;;;;14.53;100.00;101271.38;5030441;28;20416;-76
2020/12/30 08:47:14;;;;;;;54.87;10.57;;;;;;;14.53;100.00;101280.16;5030189;28;20495;-77
2020/12/30 08:49:42;;;;;;;59.90;10.37;;;;;;;14.41;100.00;101275.72;5033887;28;20817;-76
2020/12/30 08:52:19;;;;;;;60.03;10.90;;;;;;;14.38;100.00;101270.69;5033624;28;20495;-77
2020/12/30 08:54:45;;;;;;;59.83;18.73;;;;;;;14.19;100.00;101262.41;5033889;28;20816;-77
2020/12/30 08:57:10;;;;;;;56.90;10.10;;;;;;;14.17;100.00;101267.81;5033730;28;20417;-75
2020/12/30 08:59:36;;;;;;;58.57;11.07;;;;;;;14.18;100.00;101252.78;5033809;28;20158;-75
2020/12/30 09:02:11;;;;;;;54.63;11.73;;;;;;;14.25;100.00;101261.97;5033874;28;20221;-78
2020/12/30 09:04:50;;;;;;;51.40;9.30;;;;;;;14.35;100.00;101261.16;5034190;28;20169;-78
2020/12/30 09:07:24;;;;;;;50.90;9.70;;;;;;;14.38;100.00;101260.94;5033853;28;20408;-77
2020/12/30 09:10:20;;;;;;;56.10;11.27;;;;;;;14.75;100.00;101255.56;5033841;28;20408;-78
2020/12/30 09:12:47;;;;;;;55.57;9.20;;;;;;;15.04;100.00;101256.00;5016300;28;20425;-77
2020/12/30 09:15:14;;;;;;;58.43;7.90;;;;;;;15.45;100.00;101249.25;5033582;28;20397;-76
2020/12/30 09:17:40;;;;;;;54.17;7.90;;;;;;;15.88;100.00;101244.06;5033316;28;20515;-75
2020/12/30 09:20:10;;;;;;;58.53;10.53;;;;;;;16.06;100.00;101239.06;5033233;28;20468;-77
2020/12/30 09:22:36;;;;;;;59.77;10.93;;;;;;;16.01;100.00;101239.41;5033482;28;20190;-74
2020/12/30 09:25:03;;;;;;;63.70;19.00;;;;;;;16.00;100.00;101236.91;5033340;28;20953;-75
2020/12/30 09:27:32;;;;;;;55.70;10.07;;;;;;;16.18;100.00;101239.88;5033352;28;20219;-77
2020/12/30 09:30:16;;;;;;;60.57;11.27;;;;;;;16.07;100.00;101224.81;5033524;28;20404;-76
2020/12/30 09:32:43;;;;;;;54.93;10.20;;;;;;;16.24;100.00;101229.56;5032867;28;20852;-78
2020/12/30 09:35:18;;;;;;;58.03;12.27;;;;;;;16.44;100.00;101217.31;5033281;28;20493;-76
2020/12/30 09:37:55;;;;;;;55.23;12.37;;;;;;;16.52;100.00;101206.91;5033123;28;20404;-75
2020/12/30 09:40:21;;;;;;;58.63;13.07;;;;;;;15.90;100.00;101222.72;5033094;28;20993;-79
2020/12/30 09:42:47;;;;;;;58.53;12.00;;;;;;;15.54;100.00;101224.69;5033163;28;20928;-77
2020/12/30 09:45:15;;;;;;;59.40;11.97;;;;;;;16.08;100.00;101226.50;5032780;28;20514;-76
2020/12/30 09:47:42;;;;;;;70.43;25.07;;;;;;;15.93;100.00;101215.34;5032893;28;20456;-75
2020/12/30 09:50:11;;;;;;;62.97;14.43;;;;;;;15.99;100.00;101214.84;5033515;28;20773;-76
2020/12/30 09:52:40;;;;;;;59.77;18.20;;;;;;;15.83;100.00;101214.44;5033006;28;20496;-77
2020/12/30 09:55:06;;;;;;;57.20;14.70;;;;;;;16.42;100.00;101210.47;5033371;28;20412;-75
2020/12/30 09:57:32;;;;;;;61.87;19.17;;;;;;;16.80;100.00;101196.63;5032885;28;20411;-76
2020/12/30 09:59:59;;;;;;;65.90;17.43;;;;;;;16.37;100.00;101198.41;5031877;28;20396;-76
2020/12/30 10:02:24;;;;;;;67.90;35.73;;;;;;;15.99;100.00;101195.47;5033053;28;20460;-77
2020/12/30 10:04:50;;;;;;;62.23;21.07;;;;;;;16.38;100.00;101191.28;5033037;28;20422;-75
2020/12/30 10:07:15;;;;;;;64.00;19.10;;;;;;;16.42;100.00;101182.13;5032478;28;20648;-74
2020/12/30 10:09:41;;;;;;;58.80;20.40;;;;;;;15.87;100.00;101188.50;5032372;28;20173;-77
2020/12/30 10:12:06;;;;;;;63.40;28.97;;;;;;;15.39;100.00;101194.13;5032678;28;20200;-76
2020/12/30 10:14:32;;;;;;;57.40;15.60;;;;;;;15.23;100.00;101200.63;5032531;28;20188;-77
2020/12/30 10:16:57;;;;;;;55.70;13.20;;;;;;;14.99;100.00;101202.56;5032025;28;20184;-75
2020/12/30 10:19:23;;;;;;;53.63;13.70;;;;;;;14.81;100.00;101201.31;5032210;28;20244;-77
2020/12/30 10:21:49;;;;;;;60.53;14.80;;;;;;;15.19;100.00;101196.56;5032102;28;20190;-75
2020/12/30 10:24:15;;;;;;;60.30;19.60;;;;;;;15.91;100.00;101179.34;5032257;28;20699;-76
2020/12/30 10:26:54;;;;;;;63.30;17.20;;;;;;;15.99;100.00;101179.56;5081793;27;884373;-76
2020/12/30 10:29:20;;;;;;;78.60;19.37;;;;;;;16.68;100.00;101171.09;5097727;28;20601;-78
2020/12/30 10:31:49;;;;;;;66.60;14.70;;;;;;;17.43;100.00;101168.91;5075957;28;20167;-76
2020/12/30 10:34:14;;;;;;;60.83;11.67;;;;;;;16.95;100.00;101168.78;5108630;28;20194;-77
2020/12/30 10:36:42;;;;;;;60.87;12.07;;;;;;;16.74;100.00;101176.75;5109002;28;20432;-78
2020/12/30 10:39:08;;;;;;;59.93;11.27;;;;;;;16.88;100.00;101168.47;5108319;28;20159;-77
2020/12/30 10:41:34;;;;;;;66.13;18.00;;;;;;;16.58;100.00;101173.72;5108407;28;20404;-76
2020/12/30 10:43:59;;;;;;;66.67;19.07;;;;;;;16.71;100.00;101165.59;5089849;28;20182;-76
2020/12/30 10:46:25;;;;;;;60.83;10.60;;;;;;;17.38;100.00;101149.03;5089745;28;20809;-76
2020/12/30 10:48:51;;;;;;;56.73;7.27;;;;;;;17.94;100.00;101141.31;5107987;28;20178;-74
2020/12/30 10:51:18;;;;;;;57.27;6.27;;;;;;;18.51;100.00;101128.94;5107943;28;20152;-77
2020/12/30 10:53:44;;;;;;;62.27;6.83;;;;;;;17.64;100.00;101136.09;5089771;28;20851;-76
2020/12/30 10:56:11;;;;;;;61.60;8.97;;;;;;;16.85;100.00;101157.25;5090031;28;20413;-74
2020/12/30 10:58:38;;;;;;;57.50;10.37;;;;;;;17.22;100.00;101148.72;5107652;28;20778;-77
2020/12/30 11:01:11;;;;;;;69.23;8.00;;;;;;;17.93;100.00;101142.31;5107787;28;20393;-75
2020/12/30 11:03:37;;;;;;;57.87;6.70;;;;;;;19.02;100.00;101132.13;5107899;28;20401;-75
2020/12/30 11:06:04;;;;;;;57.43;5.83;;;;;;;19.67;100.00;101127.56;5107734;28;20454;-76
2020/12/30 11:08:30;;;;;;;60.07;6.10;;;;;;;19.63;100.00;101129.66;5107479;28;20397;-76
2020/12/30 11:11:00;;;;;;;60.63;6.03;;;;;;;19.20;100.00;101132.19;5095592;28;20748;-76
2020/12/30 11:13:26;;;;;;;57.57;5.50;;;;;;;18.73;100.00;101129.56;5106100;28;20432;-76